Time;durP1;ratioP1;P1;durP2;ratioP2;P2;SDS_P1;SDS_P2;PMS_P1;PMS_P2;Temp;Humidity;BMP_temperature;BMP_pressure;BME280_temperature;BME280_humidity;BME280_pressure;Samples;Min_cycle;Max_cycle;Signal;HPM_P1;HPM_P2
2023/12/26 00:01:24;;;;;;;;;;;11.90;99.90;;;;;;5090470;28;19931;-81
2023/12/26 00:03:49;;;;;;;;;;;11.90;99.90;;;;;;5073208;28;20336;-82
2023/12/26 00:06:19;;;;;;;;;;;12.00;99.90;;;;;;5091045;28;19913;-80
2023/12/26 00:08:45;;;;;;;;;;;12.00;99.90;;;;;;5091190;28;20045;-80
2023/12/26 00:11:11;;;;;;;;;;;12.00;99.90;;;;;;5074498;28;20412;-80
2023/12/26 00:13:37;;;;;;;;;;;12.00;99.90;;;;;;5091151;28;20019;-80
2023/12/26 00:16:03;;;;;;;;;;;12.00;99.90;;;;;;5091416;28;19922;-82
2023/12/26 00:18:29;;;;;;;;;;;12.00;99.90;;;;;;5072310;28;19998;-80
2023/12/26 00:20:55;;;;;;;;;;;12.00;99.90;;;;;;5090999;28;19977;-80
2023/12/26 00:23:20;;;;;;;;;;;12.00;99.90;;;;;;5072723;28;20454;-81
2023/12/26 00:25:46;;;;;;;;;;;12.00;99.90;;;;;;5091156;28;19912;-80
2023/12/26 00:28:14;;;;;;;;;;;12.10;99.90;;;;;;5073230;28;19909;-78
2023/12/26 00:30:42;;;;;;;;;;;12.10;99.90;;;;;;5072472;28;20003;-81
2023/12/26 00:33:08;;;;;;;;;;;12.00;99.90;;;;;;5073280;28;19908;-77
2023/12/26 00:35:34;;;;;;;;;;;12.00;99.90;;;;;;5072342;28;20339;-80
2023/12/26 00:38:01;;;;;;;;;;;11.90;99.90;;;;;;5073033;28;19977;-80
2023/12/26 00:40:27;;;;;;;;;;;11.90;99.90;;;;;;5072891;28;20074;-81
2023/12/26 00:42:53;;;;;;;;;;;11.90;99.90;;;;;;5072247;28;19916;-82
2023/12/26 00:45:22;;;;;;;;;;;12.00;99.90;;;;;;5090438;28;19912;-81
2023/12/26 00:47:48;;;;;;;;;;;12.00;99.90;;;;;;5091185;28;19915;-80
2023/12/26 00:50:16;;;;;;;;;;;12.00;99.90;;;;;;5090091;28;19921;-80
2023/12/26 00:52:42;;;;;;;;;;;12.00;99.90;;;;;;5089739;28;19912;-80
2023/12/26 00:55:12;;;;;;;;;;;11.90;99.90;;;;;;5090590;28;20018;-81
2023/12/26 00:57:37;;;;;;;;;;;12.00;99.90;;;;;;5090222;28;19912;-81
2023/12/26 01:00:36;;;;;;;;;;;12.00;99.90;;;;;;5090115;28;20260;-79
2023/12/26 01:03:24;;;;;;;;;;;12.00;99.90;;;;;;5013320;28;20304;-83
2023/12/26 01:05:50;;;;;;;;;;;12.00;99.90;;;;;;5036860;28;19917;-83
2023/12/26 01:08:16;;;;;;;;;;;12.10;99.90;;;;;;5027629;28;19992;-81
2023/12/26 01:10:42;;;;;;;;;;;12.00;99.90;;;;;;5027709;28;19964;-78
2023/12/26 01:13:08;;;;;;;;;;;12.00;99.90;;;;;;5028731;28;19913;-77
2023/12/26 01:15:34;;;;;;;;;;;12.10;99.90;;;;;;5031194;28;19919;-77
2023/12/26 01:18:00;;;;;;;;;;;12.10;99.90;;;;;;5031341;28;20325;-81
2023/12/26 01:20:26;;;;;;;;;;;12.00;99.90;;;;;;5022104;28;20361;-78
2023/12/26 01:22:52;;;;;;;;;;;12.10;99.90;;;;;;5033787;28;19920;-81
2023/12/26 01:25:17;;;;;;;;;;;12.20;99.90;;;;;;5050608;28;20373;-77
2023/12/26 01:27:43;;;;;;;;;;;12.20;99.90;;;;;;5051201;28;20409;-78
2023/12/26 01:30:09;;;;;;;;;;;12.20;99.90;;;;;;5033823;28;20010;-79
2023/12/26 01:32:35;;;;;;;;;;;12.20;99.90;;;;;;5049898;28;19912;-79
2023/12/26 01:35:01;;;;;;;;;;;12.20;99.90;;;;;;5051168;28;19908;-80
2023/12/26 01:37:27;;;;;;;;;;;12.30;99.90;;;;;;5051361;28;20398;-79
2023/12/26 01:39:53;;;;;;;;;;;12.30;99.90;;;;;;5073259;28;19942;-80
2023/12/26 01:42:19;;;;;;;;;;;12.30;99.90;;;;;;5073167;28;19913;-79
2023/12/26 01:44:45;;;;;;;;;;;12.20;99.90;;;;;;5073173;28;19914;-81
2023/12/26 01:47:11;;;;;;;;;;;12.20;99.90;;;;;;5072869;28;20336;-79
2023/12/26 01:49:38;;;;;;;;;;;12.20;99.90;;;;;;5054292;28;19928;-80
2023/12/26 01:52:07;;;;;;;;;;;12.20;99.90;;;;;;5073066;28;19916;-80
2023/12/26 01:54:35;;;;;;;;;;;12.30;99.90;;;;;;5072991;28;19912;-80
2023/12/26 01:57:02;;;;;;;;;;;12.30;99.90;;;;;;5072275;28;20302;-80
2023/12/26 01:59:28;;;;;;;;;;;12.30;99.90;;;;;;5054332;28;19924;-80
2023/12/26 02:01:56;;;;;;;;;;;12.30;99.90;;;;;;5054333;28;19912;-81
2023/12/26 02:04:21;;;;;;;;;;;12.30;99.90;;;;;;5050612;28;20297;-81
2023/12/26 02:06:48;;;;;;;;;;;12.30;99.90;;;;;;5052547;28;19920;-79
2023/12/26 02:09:16;;;;;;;;;;;12.30;99.90;;;;;;5052959;28;19935;-80
2023/12/26 02:11:42;;;;;;;;;;;12.30;99.90;;;;;;5072014;28;19912;-81
2023/12/26 02:14:09;;;;;;;;;;;12.30;99.90;;;;;;5072587;28;20054;-80
2023/12/26 02:16:37;;;;;;;;;;;12.40;99.90;;;;;;5071900;28;19935;-80
2023/12/26 02:19:03;;;;;;;;;;;12.40;99.90;;;;;;5053715;28;19913;-77
2023/12/26 02:21:29;;;;;;;;;;;12.30;99.90;;;;;;5072009;28;20055;-78
2023/12/26 02:23:55;;;;;;;;;;;12.30;99.90;;;;;;5071180;28;19994;-80
2023/12/26 02:26:26;;;;;;;;;;;12.20;99.90;;;;;;5053952;28;19917;-79
2023/12/26 02:28:53;;;;;;;;;;;12.20;99.90;;;;;;5053580;28;19912;-80
2023/12/26 02:31:20;;;;;;;;;;;12.20;99.90;;;;;;5071221;28;20363;-80
2023/12/26 02:33:47;;;;;;;;;;;12.20;99.90;;;;;;5071914;28;19965;-80
2023/12/26 02:36:13;;;;;;;;;;;12.10;99.90;;;;;;5071974;28;19909;-81
2023/12/26 02:38:39;;;;;;;;;;;12.10;99.90;;;;;;5071494;28;19913;-81
2023/12/26 02:41:05;;;;;;;;;;;12.00;99.90;;;;;;5071313;28;19913;-80
2023/12/26 02:43:33;;;;;;;;;;;12.00;99.90;;;;;;5053537;28;19931;-81
2023/12/26 02:45:59;;;;;;;;;;;11.90;99.90;;;;;;5053227;28;19917;-80
2023/12/26 02:48:24;;;;;;;;;;;11.90;99.90;;;;;;5071538;28;20043;-81
2023/12/26 02:50:50;;;;;;;;;;;11.90;99.90;;;;;;5071211;28;20016;-78
2023/12/26 02:53:16;;;;;;;;;;;11.70;99.90;;;;;;5071150;28;19913;-79
2023/12/26 02:55:42;;;;;;;;;;;11.70;99.90;;;;;;5071134;28;20412;-77
2023/12/26 02:58:09;;;;;;;;;;;11.80;99.90;;;;;;5071085;28;19915;-78
2023/12/26 03:00:35;;;;;;;;;;;11.80;99.90;;;;;;5070507;28;20376;-78
2023/12/26 03:03:01;;;;;;;;;;;11.70;99.90;;;;;;5072140;28;19908;-78
2023/12/26 03:05:27;;;;;;;;;;;11.70;99.90;;;;;;5071587;28;20003;-78
2023/12/26 03:07:53;;;;;;;;;;;11.60;99.90;;;;;;5070911;28;20023;-77
2023/12/26 03:10:19;;;;;;;;;;;11.60;99.90;;;;;;5070631;28;19931;-78
2023/12/26 03:12:44;;;;;;;;;;;11.60;99.90;;;;;;5071547;28;19997;-79
2023/12/26 03:15:10;;;;;;;;;;;11.50;99.90;;;;;;5071042;28;19970;-79
2023/12/26 03:17:36;;;;;;;;;;;11.50;99.90;;;;;;5070914;28;19955;-80
2023/12/26 03:20:02;;;;;;;;;;;11.40;99.90;;;;;;5074648;28;19955;-79
2023/12/26 03:22:28;;;;;;;;;;;11.40;99.90;;;;;;5090509;28;20015;-78
2023/12/26 03:24:54;;;;;;;;;;;11.30;99.90;;;;;;5072191;28;20024;-77
2023/12/26 03:27:20;;;;;;;;;;;11.30;99.90;;;;;;5090112;28;20023;-78
2023/12/26 03:29:46;;;;;;;;;;;11.20;99.90;;;;;;5072053;28;19943;-78
2023/12/26 03:32:12;;;;;;;;;;;11.20;99.90;;;;;;5072076;28;20340;-78
2023/12/26 03:34:37;;;;;;;;;;;11.20;99.90;;;;;;5072555;28;19952;-78
2023/12/26 03:37:04;;;;;;;;;;;11.20;99.90;;;;;;5072090;28;19988;-83
2023/12/26 03:39:33;;;;;;;;;;;11.20;99.90;;;;;;5072254;28;19949;-82
2023/12/26 03:41:59;;;;;;;;;;;11.10;99.90;;;;;;5090721;28;19912;-77
2023/12/26 03:44:24;;;;;;;;;;;11.20;99.90;;;;;;5072341;28;19952;-80
2023/12/26 03:46:51;;;;;;;;;;;11.20;99.90;;;;;;5090776;28;20272;-81
2023/12/26 03:49:17;;;;;;;;;;;11.20;99.90;;;;;;5091097;28;20301;-75
2023/12/26 03:51:44;;;;;;;;;;;11.20;99.90;;;;;;5090169;28;19916;-79
2023/12/26 03:54:10;;;;;;;;;;;11.10;99.90;;;;;;5090664;28;20023;-78
2023/12/26 03:56:35;;;;;;;;;;;11.10;99.90;;;;;;5090319;28;19947;-79
2023/12/26 03:59:02;;;;;;;;;;;11.10;99.90;;;;;;5090374;28;19967;-78
2023/12/26 04:01:28;;;;;;;;;;;11.00;99.90;;;;;;5072246;28;20351;-77
2023/12/26 04:03:54;;;;;;;;;;;10.90;99.90;;;;;;5072402;28;19974;-76
2023/12/26 04:06:20;;;;;;;;;;;10.80;99.90;;;;;;5090095;28;20348;-78
2023/12/26 04:08:46;;;;;;;;;;;10.80;99.90;;;;;;5090443;28;19915;-77
2023/12/26 04:11:12;;;;;;;;;;;10.80;99.90;;;;;;5090439;28;19916;-77
2023/12/26 04:13:38;;;;;;;;;;;10.80;99.90;;;;;;5072459;28;19984;-77
2023/12/26 04:16:04;;;;;;;;;;;10.80;99.90;;;;;;5090021;28;19992;-75
2023/12/26 04:18:30;;;;;;;;;;;10.70;99.90;;;;;;5090201;28;20064;-76
2023/12/26 04:20:56;;;;;;;;;;;10.80;99.90;;;;;;5089912;28;19928;-76
2023/12/26 04:23:22;;;;;;;;;;;10.80;99.90;;;;;;5089970;28;19945;-75
2023/12/26 04:25:48;;;;;;;;;;;10.70;99.90;;;;;;5091051;28;19915;-76
2023/12/26 04:28:14;;;;;;;;;;;10.70;99.90;;;;;;5089997;28;19916;-77
2023/12/26 04:30:40;;;;;;;;;;;10.70;99.90;;;;;;5090040;28;19920;-78
2023/12/26 04:33:07;;;;;;;;;;;10.70;99.90;;;;;;5090247;28;19995;-75
2023/12/26 04:35:33;;;;;;;;;;;10.70;99.90;;;;;;5071422;28;19988;-76
2023/12/26 04:37:59;;;;;;;;;;;10.60;99.90;;;;;;5090289;28;19976;-76
2023/12/26 04:40:26;;;;;;;;;;;10.60;99.90;;;;;;5089820;28;20378;-78
2023/12/26 04:42:52;;;;;;;;;;;10.60;99.90;;;;;;5090575;28;19942;-79
2023/12/26 04:45:17;;;;;;;;;;;10.70;99.90;;;;;;5090409;28;19962;-78
2023/12/26 04:47:43;;;;;;;;;;;10.60;99.90;;;;;;5091848;28;19912;-78
2023/12/26 04:50:09;;;;;;;;;;;10.60;99.90;;;;;;5093872;28;19974;-78
2023/12/26 04:52:35;;;;;;;;;;;10.60;99.90;;;;;;5075906;28;19935;-79
2023/12/26 04:55:01;;;;;;;;;;;10.60;99.90;;;;;;5076651;28;19908;-77
2023/12/26 04:57:27;;;;;;;;;;;10.60;99.90;;;;;;5094460;28;19912;-78
2023/12/26 04:59:53;;;;;;;;;;;10.70;99.90;;;;;;5094745;28;19930;-78
2023/12/26 05:02:20;;;;;;;;;;;10.70;99.90;;;;;;5094241;28;19919;-74
2023/12/26 05:04:46;;;;;;;;;;;10.70;99.90;;;;;;5094694;28;19912;-77
2023/12/26 05:07:11;;;;;;;;;;;10.70;99.90;;;;;;5094555;28;19988;-76
2023/12/26 05:09:37;;;;;;;;;;;10.70;99.90;;;;;;5094186;28;20264;-77
2023/12/26 05:12:03;;;;;;;;;;;10.60;99.90;;;;;;5094491;28;19982;-76
2023/12/26 05:14:29;;;;;;;;;;;10.60;99.90;;;;;;5076225;28;19994;-77
2023/12/26 05:16:55;;;;;;;;;;;10.60;99.90;;;;;;5094323;28;19912;-77
2023/12/26 05:19:21;;;;;;;;;;;10.60;99.90;;;;;;5094297;28;19974;-76
2023/12/26 05:21:47;;;;;;;;;;;10.50;99.90;;;;;;5093958;28;19931;-76
2023/12/26 05:24:13;;;;;;;;;;;10.50;99.90;;;;;;5094079;28;19912;-78
2023/12/26 05:26:40;;;;;;;;;;;10.60;99.90;;;;;;5075880;28;19920;-78
2023/12/26 05:29:07;;;;;;;;;;;10.60;99.90;;;;;;5094109;28;20348;-78
2023/12/26 05:31:33;;;;;;;;;;;10.60;99.90;;;;;;5075448;28;19920;-80
2023/12/26 05:34:01;;;;;;;;;;;10.60;99.90;;;;;;5075642;28;19949;-77
2023/12/26 05:36:27;;;;;;;;;;;10.60;99.90;;;;;;5094064;28;19956;-79
2023/12/26 05:38:52;;;;;;;;;;;10.60;99.90;;;;;;5094040;28;19915;-79
2023/12/26 05:41:18;;;;;;;;;;;10.60;99.90;;;;;;5075107;28;19912;-78
2023/12/26 05:43:44;;;;;;;;;;;10.60;99.90;;;;;;5094532;28;20260;-79
2023/12/26 05:46:10;;;;;;;;;;;10.70;99.90;;;;;;5075417;28;19959;-78
2023/12/26 05:48:36;;;;;;;;;;;10.60;99.90;;;;;;5093334;28;20059;-80
2023/12/26 05:51:03;;;;;;;;;;;10.50;99.90;;;;;;5075335;28;19920;-80
2023/12/26 05:53:29;;;;;;;;;;;10.50;99.90;;;;;;5093841;28;19912;-82
2023/12/26 05:55:57;;;;;;;;;;;10.50;99.90;;;;;;5075516;28;20260;-80
2023/12/26 05:58:23;;;;;;;;;;;10.50;99.90;;;;;;5074833;28;20242;-80
2023/12/26 06:00:49;;;;;;;;;;;10.50;99.90;;;;;;5074671;28;20022;-82
2023/12/26 06:03:16;;;;;;;;;;;10.60;99.90;;;;;;5093266;28;20404;-80
2023/12/26 06:05:42;;;;;;;;;;;10.50;99.90;;;;;;5093483;28;19951;-81
2023/12/26 06:08:08;;;;;;;;;;;10.60;99.90;;;;;;5093464;28;19919;-81
2023/12/26 06:10:34;;;;;;;;;;;10.70;99.90;;;;;;5074826;28;19924;-81
2023/12/26 06:13:00;;;;;;;;;;;10.70;99.90;;;;;;5093468;28;19980;-81
2023/12/26 06:15:26;;;;;;;;;;;10.70;99.90;;;;;;5074475;28;20002;-77
2023/12/26 06:17:52;;;;;;;;;;;10.70;99.90;;;;;;5092897;28;20261;-80
2023/12/26 06:20:21;;;;;;;;;;;10.70;99.90;;;;;;5093161;28;19916;-80
2023/12/26 06:22:47;;;;;;;;;;;10.80;99.90;;;;;;5093376;28;20048;-81
2023/12/26 06:25:13;;;;;;;;;;;10.70;99.90;;;;;;5093136;28;19961;-80
2023/12/26 06:27:39;;;;;;;;;;;10.70;99.90;;;;;;5092507;28;19912;-78
2023/12/26 06:30:10;;;;;;;;;;;10.80;99.90;;;;;;5092715;28;19947;-79
2023/12/26 06:32:36;;;;;;;;;;;10.80;99.90;;;;;;5072868;28;19919;-77
2023/12/26 06:35:02;;;;;;;;;;;10.80;99.90;;;;;;5078566;28;19912;-77
2023/12/26 06:37:28;;;;;;;;;;;10.90;99.90;;;;;;5073966;28;19916;-76
2023/12/26 06:39:54;;;;;;;;;;;10.90;99.90;;;;;;5092539;28;19908;-76
2023/12/26 06:42:20;;;;;;;;;;;11.00;99.90;;;;;;5074278;28;19908;-76
2023/12/26 06:44:46;;;;;;;;;;;11.20;99.90;;;;;;5092366;28;19912;-76
2023/12/26 06:47:12;;;;;;;;;;;11.50;99.90;;;;;;5073491;28;20378;-79
2023/12/26 06:49:44;;;;;;;;;;;11.70;99.90;;;;;;5092800;28;19973;-78
2023/12/26 06:52:11;;;;;;;;;;;12.10;99.90;;;;;;5074219;28;19912;-78
2023/12/26 06:54:37;;;;;;;;;;;12.40;99.90;;;;;;5092300;28;20414;-75
2023/12/26 06:57:07;;;;;;;;;;;12.80;99.90;;;;;;5092324;28;19916;-79
2023/12/26 06:59:33;;;;;;;;;;;13.20;99.90;;;;;;5073774;28;20308;-79
2023/12/26 07:01:59;;;;;;;;;;;13.30;99.90;;;;;;5073281;28;19922;-80
2023/12/26 07:04:24;;;;;;;;;;;13.50;99.90;;;;;;5073445;28;20018;-78
2023/12/26 07:06:50;;;;;;;;;;;13.60;99.90;;;;;;5091693;28;20036;-75
2023/12/26 07:09:16;;;;;;;;;;;13.80;99.90;;;;;;5091434;28;19951;-76
2023/12/26 07:11:42;;;;;;;;;;;13.90;99.90;;;;;;5091434;28;19992;-75
2023/12/26 07:14:08;;;;;;;;;;;13.90;99.90;;;;;;5091793;28;19931;-75
2023/12/26 07:16:35;;;;;;;;;;;14.10;99.90;;;;;;5092043;28;20289;-73
2023/12/26 07:19:01;;;;;;;;;;;14.50;99.90;;;;;;5092510;28;19908;-75
2023/12/26 07:21:27;;;;;;;;;;;15.00;99.90;;;;;;5073529;28;19920;-74
2023/12/26 07:23:53;;;;;;;;;;;15.10;99.90;;;;;;5073385;28;20006;-74
2023/12/26 07:26:21;;;;;;;;;;;15.40;99.90;;;;;;5092413;28;19920;-71
2023/12/26 07:28:47;;;;;;;;;;;15.70;99.90;;;;;;5091117;28;19999;-71
2023/12/26 07:31:20;;;;;;;;;;;15.90;99.90;;;;;;5090985;28;20010;-72
2023/12/26 07:33:47;;;;;;;;;;;16.20;99.90;;;;;;5093082;28;19957;-70
2023/12/26 07:36:13;;;;;;;;;;;16.40;99.90;;;;;;5092197;28;19908;-76
2023/12/26 07:38:39;;;;;;;;;;;16.40;99.90;;;;;;5104041;28;19915;-75
2023/12/26 07:41:05;;;;;;;;;;;16.60;99.90;;;;;;5104243;28;19912;-71
2023/12/26 07:43:32;;;;;;;;;;;16.30;99.90;;;;;;5092062;28;20283;-71
2023/12/26 07:45:58;;;;;;;;;;;16.20;99.90;;;;;;5092176;28;19935;-71
2023/12/26 07:48:24;;;;;;;;;;;16.10;99.90;;;;;;5091907;28;20281;-72
2023/12/26 07:50:50;;;;;;;;;;;15.70;99.90;;;;;;5091668;28;20030;-71
2023/12/26 07:53:16;;;;;;;;;;;15.20;99.90;;;;;;5092296;28;19920;-72
2023/12/26 07:55:43;;;;;;;;;;;14.90;99.90;;;;;;5087558;28;20396;-83
2023/12/26 07:58:08;;;;;;;;;;;14.70;99.90;;;;;;5073054;28;19977;-73
2023/12/26 08:00:34;;;;;;;;;;;14.40;99.90;;;;;;5091148;28;19953;-79
2023/12/26 08:03:00;;;;;;;;;;;14.10;99.90;;;;;;5091933;28;19981;-77
2023/12/26 08:05:26;;;;;;;;;;;14.00;99.90;;;;;;5091911;28;19909;-81
2023/12/26 08:07:52;;;;;;;;;;;13.90;99.90;;;;;;5092124;28;19908;-79
2023/12/26 08:10:18;;;;;;;;;;;13.80;99.90;;;;;;5069768;28;19916;-79
2023/12/26 08:12:44;;;;;;;;;;;13.80;99.90;;;;;;5083182;28;19908;-73
2023/12/26 08:15:10;;;;;;;;;;;13.90;99.90;;;;;;5073485;28;19978;-75
2023/12/26 08:17:36;;;;;;;;;;;14.00;99.90;;;;;;5091984;28;19914;-80
2023/12/26 08:20:03;;;;;;;;;;;14.20;99.90;;;;;;5091508;28;19951;-81
2023/12/26 08:22:30;;;;;;;;;;;14.10;99.90;;;;;;5077172;28;19969;-81
2023/12/26 08:24:55;;;;;;;;;;;14.30;99.90;;;;;;5095612;28;19912;-79
2023/12/26 08:27:22;;;;;;;;;;;14.50;99.90;;;;;;5077219;28;19915;-79
2023/12/26 08:29:49;;;;;;;;;;;14.60;99.90;;;;;;5095659;28;19923;-73
2023/12/26 08:32:15;;;;;;;;;;;14.70;99.90;;;;;;5076386;28;19916;-76
2023/12/26 08:34:44;;;;;;;;;;;14.70;99.90;;;;;;5083599;28;19915;-75
2023/12/26 08:37:11;;;;;;;;;;;14.70;99.90;;;;;;5115819;28;19907;-79
2023/12/26 08:39:36;;;;;;;;;;;14.80;99.90;;;;;;5084335;28;19935;-81
2023/12/26 08:42:02;;;;;;;;;;;14.90;99.90;;;;;;5095464;28;19913;-83
2023/12/26 08:44:28;;;;;;;;;;;15.10;99.90;;;;;;5076655;28;19928;-77
2023/12/26 08:46:54;;;;;;;;;;;15.10;99.90;;;;;;5095559;28;20277;-78
2023/12/26 08:49:20;;;;;;;;;;;15.20;99.90;;;;;;5094660;28;20006;-82
2023/12/26 08:51:46;;;;;;;;;;;15.30;99.90;;;;;;5095356;28;20002;-74
2023/12/26 08:54:13;;;;;;;;;;;15.50;99.90;;;;;;5076118;28;19915;-75
2023/12/26 08:56:42;;;;;;;;;;;15.40;99.90;;;;;;5094952;28;20291;-79
2023/12/26 08:59:08;;;;;;;;;;;15.30;99.90;;;;;;5094806;28;19947;-69
2023/12/26 09:01:35;;;;;;;;;;;15.10;99.90;;;;;;5095315;28;19978;-79
2023/12/26 09:04:02;;;;;;;;;;;15.20;99.90;;;;;;5076499;28;19908;-84
2023/12/26 09:06:28;;;;;;;;;;;15.10;99.90;;;;;;5077574;28;19908;-86
2023/12/26 09:08:54;;;;;;;;;;;15.10;99.90;;;;;;5077329;28;19919;-86
2023/12/26 09:11:19;;;;;;;;;;;15.00;99.90;;;;;;5076561;28;19919;-86
2023/12/26 09:13:45;;;;;;;;;;;15.10;99.90;;;;;;5094301;28;19916;-81
2023/12/26 09:16:11;;;;;;;;;;;15.10;99.90;;;;;;5094129;28;20236;-80
2023/12/26 09:18:37;;;;;;;;;;;15.10;99.90;;;;;;5094869;28;20326;-85
2023/12/26 09:21:03;;;;;;;;;;;15.20;99.90;;;;;;5095002;28;19973;-84
2023/12/26 09:23:29;;;;;;;;;;;15.10;99.90;;;;;;5094965;28;19927;-81
2023/12/26 09:25:55;;;;;;;;;;;15.30;99.90;;;;;;5094232;28;19923;-83
2023/12/26 09:28:20;;;;;;;;;;;15.50;99.90;;;;;;5075568;28;19908;-84
2023/12/26 09:30:46;;;;;;;;;;;15.90;99.90;;;;;;5076957;28;19923;-84
2023/12/26 09:33:12;;;;;;;;;;;16.30;99.90;;;;;;5094063;28;19909;-83
2023/12/26 09:35:38;;;;;;;;;;;16.50;99.90;;;;;;5094795;28;19927;-83
2023/12/26 09:38:04;;;;;;;;;;;16.70;99.90;;;;;;5076957;28;20019;-79
2023/12/26 09:40:30;;;;;;;;;;;16.80;99.90;;;;;;5075956;28;19955;-85
2023/12/26 09:42:59;;;;;;;;;;;17.00;99.90;;;;;;5076454;28;19908;-84
2023/12/26 09:45:26;;;;;;;;;;;17.10;99.90;;;;;;5094087;28;19931;-83
2023/12/26 09:47:52;;;;;;;;;;;17.20;99.90;;;;;;5094218;28;19911;-85
2023/12/26 09:50:18;;;;;;;;;;;17.40;99.90;;;;;;5094771;28;19916;-83
2023/12/26 09:52:48;;;;;;;;;;;17.50;99.90;;;;;;5094269;28;19920;-83
2023/12/26 09:55:14;;;;;;;;;;;17.70;99.90;;;;;;5094398;28;19908;-82
2023/12/26 09:57:42;;;;;;;;;;;17.60;99.90;;;;;;5076563;28;19909;-83
2023/12/26 10:00:08;;;;;;;;;;;17.60;99.90;;;;;;5076428;28;20420;-83
2023/12/26 10:02:34;;;;;;;;;;;17.60;99.90;;;;;;5075663;28;19951;-83
2023/12/26 10:05:00;;;;;;;;;;;17.50;99.90;;;;;;5076135;28;20013;-83
2023/12/26 10:07:26;;;;;;;;;;;17.50;99.90;;;;;;5094591;28;20350;-81
2023/12/26 10:09:53;;;;;;;;;;;17.60;99.90;;;;;;5076609;28;20342;-84
2023/12/26 10:12:19;;;;;;;;;;;17.50;99.90;;;;;;5079130;28;20280;-83
2023/12/26 10:14:45;;;;;;;;;;;17.60;99.90;;;;;;5082357;28;19912;-84
2023/12/26 10:17:12;;;;;;;;;;;17.60;99.90;;;;;;5077440;28;20002;-85
2023/12/26 10:19:38;;;;;;;;;;;17.70;99.90;;;;;;5088659;28;19908;-84
2023/12/26 10:22:04;;;;;;;;;;;17.90;99.90;;;;;;5065651;28;19916;-85
2023/12/26 10:24:30;;;;;;;;;;;18.10;99.90;;;;;;5057007;28;19912;-86
2023/12/26 10:26:56;;;;;;;;;;;18.20;99.90;;;;;;5074751;28;19962;-86
2023/12/26 10:29:21;;;;;;;;;;;18.10;99.90;;;;;;5074247;28;19908;-87
2023/12/26 10:31:47;;;;;;;;;;;18.10;99.90;;;;;;5075102;28;20271;-85
2023/12/26 10:34:14;;;;;;;;;;;17.90;99.90;;;;;;5056343;28;19912;-86
2023/12/26 10:36:40;;;;;;;;;;;18.00;99.90;;;;;;5074302;28;19962;-83
2023/12/26 10:39:06;;;;;;;;;;;18.20;99.90;;;;;;5073586;28;19909;-85
2023/12/26 10:41:32;;;;;;;;;;;18.30;99.90;;;;;;5055444;28;19931;-85
2023/12/26 10:43:59;;;;;;;;;;;18.40;99.90;;;;;;5074151;28;19951;-84
2023/12/26 10:46:25;;;;;;;;;;;18.50;99.90;;;;;;5054387;28;19912;-83
2023/12/26 10:48:53;;;;;;;;;;;18.50;99.90;;;;;;5073580;28;19912;-82
2023/12/26 10:51:21;;;;;;;;;;;18.50;99.90;;;;;;5072571;28;20322;-77
2023/12/26 10:53:56;;;;;;;;;;;18.40;99.90;;;;;;5071625;28;20352;-83
2023/12/26 10:56:23;;;;;;;;;;;18.30;99.90;;;;;;5073593;28;20305;-76
2023/12/26 10:58:50;;;;;;;;;;;18.30;99.90;;;;;;5074849;28;19988;-81
2023/12/26 13:53:04;;;;;;;;;;;19.10;99.90;;;;;;5082425;28;19923;-78
2023/12/26 13:55:31;;;;;;;;;;;19.10;99.90;;;;;;5084545;28;19912;-77
2023/12/26 13:57:57;;;;;;;;;;;19.10;99.90;;;;;;5083654;28;19909;-81
2023/12/26 14:00:23;;;;;;;;;;;19.00;99.90;;;;;;5082365;28;19931;-84
2023/12/26 14:02:49;;;;;;;;;;;19.00;99.90;;;;;;5084520;28;19908;-84
2023/12/26 14:05:14;;;;;;;;;;;19.00;99.90;;;;;;5079448;28;20279;-80
2023/12/26 14:07:44;;;;;;;;;;;19.00;99.90;;;;;;5083819;28;19919;-78
2023/12/26 14:10:10;;;;;;;;;;;19.00;99.90;;;;;;5082969;28;20494;-82
2023/12/26 14:12:35;;;;;;;;;;;19.00;99.90;;;;;;5083050;28;20347;-79
2023/12/26 14:15:02;;;;;;;;;;;19.00;99.90;;;;;;5092732;28;20242;-84
2023/12/26 14:17:28;;;;;;;;;;;18.90;99.90;;;;;;5089673;28;19966;-81
2023/12/26 14:19:55;;;;;;;;;;;19.00;99.90;;;;;;5087820;28;19923;-84
2023/12/26 14:22:23;;;;;;;;;;;19.10;99.90;;;;;;5083182;28;19912;-77
2023/12/26 14:24:49;;;;;;;;;;;19.10;99.90;;;;;;5082572;28;19962;-78
2023/12/26 14:27:17;;;;;;;;;;;18.90;99.90;;;;;;5091009;28;19987;-77
2023/12/26 14:29:43;;;;;;;;;;;18.90;99.90;;;;;;5092198;28;19908;-84
2023/12/26 14:32:10;;;;;;;;;;;18.70;99.90;;;;;;5093656;28;19923;-82
2023/12/26 14:34:41;;;;;;;;;;;18.70;99.90;;;;;;5088549;28;20379;-77
2023/12/26 14:37:07;;;;;;;;;;;18.70;99.90;;;;;;5100784;28;20355;-83
2023/12/26 14:39:33;;;;;;;;;;;18.50;99.90;;;;;;5072005;28;19909;-83
2023/12/26 14:41:58;;;;;;;;;;;18.30;99.90;;;;;;5083964;28;19918;-87
2023/12/26 14:44:24;;;;;;;;;;;18.10;99.90;;;;;;5093361;28;19927;-87
2023/12/26 14:46:50;;;;;;;;;;;18.00;99.90;;;;;;5091448;28;19920;-87
2023/12/26 14:49:16;;;;;;;;;;;17.90;99.90;;;;;;5092761;28;19915;-81
2023/12/26 14:51:42;;;;;;;;;;;17.90;99.90;;;;;;5092999;28;19929;-81
2023/12/26 14:54:09;;;;;;;;;;;17.90;99.90;;;;;;5093186;28;19954;-81
2023/12/26 14:56:35;;;;;;;;;;;17.90;99.90;;;;;;5092458;28;19916;-86
2023/12/26 14:59:01;;;;;;;;;;;17.80;99.90;;;;;;5092868;28;19919;-85
2023/12/26 15:01:27;;;;;;;;;;;17.80;99.90;;;;;;5092276;28;19952;-83
2023/12/26 15:03:53;;;;;;;;;;;17.70;99.90;;;;;;5092582;28;19947;-79
2023/12/26 15:06:19;;;;;;;;;;;17.60;99.90;;;;;;5090672;28;19924;-81
2023/12/26 15:08:44;;;;;;;;;;;17.50;99.90;;;;;;5092879;28;19912;-85
2023/12/26 15:11:14;;;;;;;;;;;17.50;99.90;;;;;;5091890;28;19912;-82
2023/12/26 15:13:40;;;;;;;;;;;17.40;99.90;;;;;;5072711;28;19909;-81
2023/12/26 15:16:18;;;;;;;;;;;17.40;99.90;;;;;;5083663;28;19919;-88
2023/12/26 15:18:44;;;;;;;;;;;17.20;99.90;;;;;;5075197;28;19908;-90
2023/12/26 15:21:10;;;;;;;;;;;17.20;99.90;;;;;;5089772;28;19908;-88
2023/12/26 15:23:36;;;;;;;;;;;17.00;99.90;;;;;;5087754;28;19908;-84
2023/12/26 15:26:02;;;;;;;;;;;17.00;99.90;;;;;;5081166;28;20352;-83
2023/12/26 15:28:28;;;;;;;;;;;17.00;99.90;;;;;;5091818;28;19908;-88
2023/12/26 15:30:54;;;;;;;;;;;16.80;99.90;;;;;;5108685;28;19961;-85
2023/12/26 15:33:20;;;;;;;;;;;16.80;99.90;;;;;;5093501;28;19908;-81
2023/12/26 15:35:46;;;;;;;;;;;16.70;99.90;;;;;;5096496;28;19926;-83
2023/12/26 15:38:12;;;;;;;;;;;16.40;99.90;;;;;;5099427;28;20012;-89
2023/12/26 15:40:38;;;;;;;;;;;16.40;99.90;;;;;;5091550;28;19909;-90
2023/12/26 15:43:07;;;;;;;;;;;16.40;99.90;;;;;;5093256;28;19908;-90
2023/12/26 15:45:34;;;;;;;;;;;16.20;99.90;;;;;;5078267;28;19928;-87
2023/12/26 15:48:01;;;;;;;;;;;16.10;99.90;;;;;;5093245;28;19982;-88
2023/12/26 15:50:27;;;;;;;;;;;16.00;99.90;;;;;;5082212;28;19912;-87
2023/12/26 15:52:55;;;;;;;;;;;15.90;99.90;;;;;;5088586;28;19965;-87
2023/12/26 15:55:22;;;;;;;;;;;15.90;99.90;;;;;;5095330;28;19938;-94
2023/12/26 15:57:48;;;;;;;;;;;15.80;99.90;;;;;;5083500;28;19912;-83
2023/12/26 16:00:14;;;;;;;;;;;15.70;99.90;;;;;;5093384;28;20397;-85
2023/12/26 16:02:40;;;;;;;;;;;15.30;99.90;;;;;;5097531;28;19908;-89
2023/12/26 16:05:06;;;;;;;;;;;15.20;99.90;;;;;;5099412;28;19908;-92
2023/12/26 16:07:32;;;;;;;;;;;15.30;99.90;;;;;;5096321;28;19963;-84
2023/12/26 16:09:58;;;;;;;;;;;15.40;99.90;;;;;;5096098;28;20225;-86
2023/12/26 16:12:24;;;;;;;;;;;15.60;99.90;;;;;;5095039;28;19908;-82
2023/12/26 16:14:50;;;;;;;;;;;15.70;99.90;;;;;;5097081;28;20391;-83
2023/12/26 16:17:16;;;;;;;;;;;15.40;99.90;;;;;;5098511;28;19908;-89
2023/12/26 16:19:42;;;;;;;;;;;15.20;99.90;;;;;;5099530;28;19931;-89
2023/12/26 16:22:08;;;;;;;;;;;15.10;99.90;;;;;;5094835;28;19908;-81
2023/12/26 16:24:36;;;;;;;;;;;15.10;99.90;;;;;;5095926;28;19977;-84
2023/12/26 16:27:02;;;;;;;;;;;14.90;99.90;;;;;;5096002;28;19919;-81
2023/12/26 16:29:27;;;;;;;;;;;14.80;99.90;;;;;;5096425;28;20378;-88
2023/12/26 16:31:53;;;;;;;;;;;14.60;99.90;;;;;;5094889;28;19961;-85
2023/12/26 16:34:19;;;;;;;;;;;14.50;99.90;;;;;;5095177;28;19912;-87
2023/12/26 16:36:46;;;;;;;;;;;14.50;99.90;;;;;;5095770;28;19969;-79
2023/12/26 16:39:13;;;;;;;;;;;14.30;99.90;;;;;;5096038;28;19915;-84
2023/12/26 16:41:39;;;;;;;;;;;14.10;99.90;;;;;;5094229;28;19908;-85
2023/12/26 16:44:09;;;;;;;;;;;14.10;99.90;;;;;;5093987;28;19912;-81
2023/12/26 16:46:35;;;;;;;;;;;14.00;99.90;;;;;;5088250;28;20410;-82
2023/12/26 16:49:02;;;;;;;;;;;14.00;99.90;;;;;;5088012;28;19912;-81
2023/12/26 16:51:28;;;;;;;;;;;14.10;99.90;;;;;;5095146;28;19953;-82
2023/12/26 16:53:53;;;;;;;;;;;14.10;99.90;;;;;;5093097;28;19908;-81
2023/12/26 16:56:19;;;;;;;;;;;14.10;99.90;;;;;;5094785;28;20238;-82
2023/12/26 16:58:45;;;;;;;;;;;14.10;99.90;;;;;;5094965;28;20271;-81
2023/12/26 17:01:12;;;;;;;;;;;14.00;99.90;;;;;;5094993;28;19915;-81
2023/12/26 17:03:39;;;;;;;;;;;14.00;99.90;;;;;;5093588;28;19909;-83